createdAt,value
2023-01-20T00:08:00.156Z,0.92
2023-01-20T00:37:55.867Z,0.81
2023-01-20T02:37:50.694Z,0.22
2023-01-20T03:07:56.218Z,0.44
2023-01-20T03:37:51.437Z,0.52
2023-01-20T04:07:59.362Z,0.42
2023-01-20T04:37:59.739Z,0.22
2023-01-20T05:07:58.898Z,0.09
2023-01-20T05:37:56.497Z,-0.12
2023-01-20T06:37:55.398Z,-0.46
2023-01-20T07:07:59.283Z,-0.54
2023-01-20T07:37:55.430Z,-0.5
2023-01-20T08:07:47.085Z,-0.57
2023-01-20T08:37:55.111Z,-0.54
2023-01-20T09:37:56.069Z,-0.12
2023-01-20T10:07:53.848Z,0.06
2023-01-20T10:37:58.328Z,0.3
2023-01-20T11:07:56.198Z,0.42
2023-01-20T11:37:53.949Z,0.7
2023-01-20T12:07:54.450Z,0.9
2023-01-20T12:37:50.228Z,1.07
2023-01-20T13:07:51.994Z,1.23
2023-01-20T13:37:47.695Z,1.16
2023-01-20T14:07:51.601Z,1.2
2023-01-20T14:37:48.960Z,1.02
2023-01-20T15:07:52.775Z,0.88
2023-01-20T15:37:46.395Z,0.49
2023-01-20T16:07:42.210Z,0.28
2023-01-20T16:37:49.905Z,0.21
2023-01-20T17:07:47.365Z,0.18
2023-01-20T17:37:51.695Z,0.1
2023-01-20T18:07:40.841Z,0.02
2023-01-20T18:37:44.689Z,-0.01
2023-01-20T19:07:49.175Z,-0.09
2023-01-20T19:37:48.060Z,-0.28
2023-01-20T20:07:49.545Z,-0.42
2023-01-20T20:37:43.666Z,-0.57
2023-01-20T21:07:47.362Z,-0.65
2023-01-20T21:37:49.404Z,-0.72
2023-01-20T22:07:42.603Z,-0.81
2023-01-20T22:37:48.813Z,-0.83
2023-01-20T23:07:42.360Z,-0.96
2023-01-20T23:37:43.783Z,-0.98
